METAR Data
IDs: Format: Raw Decoded Include TAF

Data at: 1525 UTC 21 Sep 2018

METAR for:KCTY (Cross City Arpt, FL, US)
Text:KCTY 211515Z AUTO 09006KT 10SM SCT021 30/25 A3012 RMK AO2 T03020245
Temperature: 30.2°C ( 86°F)
Dewpoint: 24.5°C ( 76°F) [RH = 72%]
Pressure (altimeter):30.12 inches Hg (1020.1 mb)
Winds:from the E (90 degrees) at 7 MPH (6 knots; 3.1 m/s)
Visibility:10 or more sm (16+ km)
Ceiling:at least 12,000 feet AGL
Clouds: scattered clouds at 2100 feet AGL
QC Flag:automated observation with no human augmentation